Time;durP1;ratioP1;P1;durP2;ratioP2;P2;SDS_P1;SDS_P2;PMS_P1;PMS_P2;Temp;Humidity;BMP_temperature;BMP_pressure;BME280_temperature;BME280_humidity;BME280_pressure;Samples;Min_cycle;Max_cycle;Signal;HPM_P1;HPM_P2
2022/07/14 00:01:45;;;;;;;19.35;4.07;;;;;;;;;;5016619;28;20100;-77
2022/07/14 00:04:10;;;;;;;21.73;4.63;;;;;;;;;;4984329;28;20049;-77
2022/07/14 00:06:36;;;;;;;26.20;5.10;;;;;;;;;;4986086;28;20486;-76
2022/07/14 00:09:01;;;;;;;27.30;5.72;;;;;;;;;;4978437;28;20053;-76
2022/07/14 00:11:26;;;;;;;21.33;5.45;;;;;;;;;;4994138;28;20026;-76
2022/07/14 00:13:52;;;;;;;21.30;5.28;;;;;;;;;;4968884;28;20559;-77
2022/07/14 00:16:17;;;;;;;29.60;6.57;;;;;;;;;;4977476;28;20041;-77
2022/07/14 00:18:43;;;;;;;25.73;5.63;;;;;;;;;;5017734;28;20389;-76
2022/07/14 00:21:14;;;;;;;27.45;5.88;;;;;;;;;;4967911;28;20137;-77
2022/07/14 00:23:40;;;;;;;21.48;5.93;;;;;;;;;;5016833;28;20037;-76
2022/07/14 00:26:06;;;;;;;20.10;4.32;;;;;;;;;;4999980;28;20034;-76
2022/07/14 00:28:32;;;;;;;24.60;4.95;;;;;;;;;;5000152;28;20528;-76
2022/07/14 00:31:03;;;;;;;16.95;4.65;;;;;;;;;;4999068;28;20045;-75
2022/07/14 00:33:29;;;;;;;18.10;5.03;;;;;;;;;;4974954;28;20053;-76
2022/07/14 00:35:54;;;;;;;27.70;5.05;;;;;;;;;;4984774;28;20018;-78
2022/07/14 00:38:21;;;;;;;27.40;5.50;;;;;;;;;;5014885;28;20540;-76
2022/07/14 00:40:46;;;;;;;24.83;4.70;;;;;;;;;;4985006;28;20034;-77
2022/07/14 00:43:12;;;;;;;17.77;4.82;;;;;;;;;;4984410;28;20513;-77
2022/07/14 00:45:37;;;;;;;20.77;5.15;;;;;;;;;;4984098;28;20060;-77
2022/07/14 00:48:03;;;;;;;21.45;5.43;;;;;;;;;;4981423;28;20515;-77
2022/07/14 00:50:28;;;;;;;24.92;5.55;;;;;;;;;;5000114;28;20121;-77
2022/07/14 00:52:53;;;;;;;25.73;4.68;;;;;;;;;;5000435;28;20057;-78
2022/07/14 00:55:19;;;;;;;20.02;6.13;;;;;;;;;;5001925;28;20645;-78
2022/07/14 00:57:46;;;;;;;23.30;5.22;;;;;;;;;;4984347;28;20113;-78
2022/07/14 01:00:12;;;;;;;24.70;6.15;;;;;;;;;;4983978;28;20091;-78
2022/07/14 01:02:38;;;;;;;23.63;5.60;;;;;;;;;;5017014;28;20038;-77
2022/07/14 01:05:06;;;;;;;21.73;5.85;;;;;;;;;;4998853;28;20402;-77
2022/07/14 01:07:32;;;;;;;18.63;5.10;;;;;;;;;;4994181;28;20022;-77
2022/07/14 01:09:57;;;;;;;17.98;5.55;;;;;;;;;;5000381;28;20045;-79
2022/07/14 01:12:26;;;;;;;20.02;5.13;;;;;;;;;;4999554;28;20130;-76
2022/07/14 01:14:51;;;;;;;23.42;5.47;;;;;;;;;;4998696;28;20041;-76
2022/07/14 01:17:17;;;;;;;17.30;5.05;;;;;;;;;;4974085;28;20061;-76
2022/07/14 01:19:43;;;;;;;23.25;5.82;;;;;;;;;;5000887;28;20121;-77
2022/07/14 01:22:08;;;;;;;31.45;5.57;;;;;;;;;;4983090;28;20037;-77
2022/07/14 01:24:36;;;;;;;24.58;6.15;;;;;;;;;;4991690;28;20034;-78
2022/07/14 01:27:01;;;;;;;15.05;5.22;;;;;;;;;;4936156;28;20070;-77
2022/07/14 01:29:27;;;;;;;21.85;5.90;;;;;;;;;;4968209;28;20089;-77
2022/07/14 01:31:53;;;;;;;16.00;5.20;;;;;;;;;;4984149;28;20034;-77
2022/07/14 01:34:18;;;;;;;19.55;5.43;;;;;;;;;;5000096;28;20061;-77
2022/07/14 01:36:44;;;;;;;27.33;5.97;;;;;;;;;;4982848;28;20068;-76
2022/07/14 01:39:09;;;;;;;17.40;5.80;;;;;;;;;;4976603;28;20045;-77
2022/07/14 01:41:34;;;;;;;20.00;5.13;;;;;;;;;;5015498;28;20378;-76
2022/07/14 01:44:00;;;;;;;26.40;6.20;;;;;;;;;;4999727;28;20454;-77
2022/07/14 01:46:25;;;;;;;16.05;5.40;;;;;;;;;;4983557;28;20155;-76
2022/07/14 01:48:51;;;;;;;19.15;6.43;;;;;;;;;;4992831;28;20029;-77
2022/07/14 01:51:16;;;;;;;23.38;6.63;;;;;;;;;;4993761;28;20133;-77
2022/07/14 01:53:42;;;;;;;26.35;6.03;;;;;;;;;;4974794;28;20041;-77
2022/07/14 01:56:10;;;;;;;21.00;5.70;;;;;;;;;;4996664;28;20409;-77
2022/07/14 01:58:36;;;;;;;19.35;6.55;;;;;;;;;;4975193;28;20040;-77
2022/07/14 02:03:45;;;;;;;;;;;;;;;;;;4998944;28;20030;-76
2022/07/14 02:06:12;;;;;;;19.05;6.85;;;;;;;;;;4983040;28;19975;-76
2022/07/14 02:08:37;;;;;;;24.23;7.50;;;;;;;;;;4981002;28;21051;-76
2022/07/14 02:13:46;;;;;;;22.35;7.00;;;;;;;;;;4989167;28;20529;-76
2022/07/14 02:16:12;;;;;;;14.35;6.07;;;;;;;;;;5000787;28;20149;-77
2022/07/14 02:18:37;;;;;;;25.77;6.45;;;;;;;;;;4959353;28;20389;-78
2022/07/14 02:21:03;;;;;;;28.60;7.07;;;;;;;;;;5002296;28;20116;-76
2022/07/14 02:23:29;;;;;;;23.85;7.78;;;;;;;;;;4963997;28;20105;-77
2022/07/14 02:25:56;;;;;;;22.30;7.00;;;;;;;;;;5006194;28;20046;-77
2022/07/14 02:28:22;;;;;;;22.83;7.75;;;;;;;;;;4997983;28;20029;-76
2022/07/14 02:30:47;;;;;;;25.58;7.50;;;;;;;;;;5019636;28;20456;-76
2022/07/14 02:33:12;;;;;;;19.40;7.68;;;;;;;;;;5005135;28;20069;-77
2022/07/14 02:35:38;;;;;;;25.60;8.13;;;;;;;;;;5006623;28;20057;-76
2022/07/14 02:38:03;;;;;;;28.48;8.68;;;;;;;;;;5005108;28;20064;-78
2022/07/14 02:40:29;;;;;;;26.42;9.32;;;;;;;;;;5003139;28;20026;-78
2022/07/14 02:42:54;;;;;;;18.45;7.93;;;;;;;;;;5005298;28;20030;-77
2022/07/14 02:45:20;;;;;;;18.17;7.65;;;;;;;;;;4988515;28;20132;-76
2022/07/14 02:47:46;;;;;;;24.77;8.20;;;;;;;;;;5005030;28;20117;-76
2022/07/14 02:50:11;;;;;;;18.38;7.35;;;;;;;;;;4988728;28;20045;-78
2022/07/14 02:52:37;;;;;;;28.48;7.93;;;;;;;;;;5006638;28;20025;-77
2022/07/14 02:55:03;;;;;;;28.23;8.52;;;;;;;;;;4987320;28;20117;-76
2022/07/14 02:57:28;;;;;;;20.08;9.00;;;;;;;;;;5006347;28;20121;-77
2022/07/14 02:59:54;;;;;;;23.45;9.05;;;;;;;;;;4989639;28;20101;-76
2022/07/14 03:02:20;;;;;;;21.02;8.88;;;;;;;;;;5006227;28;20498;-76
2022/07/14 03:04:46;;;;;;;31.10;8.70;;;;;;;;;;4971797;28;20033;-76
2022/07/14 03:07:12;;;;;;;21.77;8.55;;;;;;;;;;4988714;28;20425;-77
2022/07/14 03:09:37;;;;;;;28.23;9.10;;;;;;;;;;5004089;28;20052;-76
2022/07/14 03:12:05;;;;;;;19.48;7.97;;;;;;;;;;5004044;28;20480;-76
2022/07/14 03:14:31;;;;;;;24.70;7.78;;;;;;;;;;5004491;28;20079;-75
2022/07/14 03:16:56;;;;;;;24.35;8.90;;;;;;;;;;5005022;28;20433;-78
2022/07/14 03:19:25;;;;;;;21.48;8.45;;;;;;;;;;5005871;28;20354;-77
2022/07/14 03:21:50;;;;;;;25.65;9.32;;;;;;;;;;4987768;28;20262;-77
2022/07/14 03:24:16;;;;;;;23.65;9.77;;;;;;;;;;4987370;28;20117;-77
2022/07/14 03:26:41;;;;;;;22.35;9.57;;;;;;;;;;5005194;28;20121;-76
2022/07/14 03:29:09;;;;;;;23.40;9.13;;;;;;;;;;4964717;28;20038;-76
2022/07/14 03:31:35;;;;;;;21.58;8.95;;;;;;;;;;4987241;28;20089;-77
2022/07/14 03:34:00;;;;;;;23.98;9.40;;;;;;;;;;5000887;28;20061;-77
2022/07/14 03:36:25;;;;;;;25.20;9.48;;;;;;;;;;4967967;28;20058;-77
2022/07/14 03:38:51;;;;;;;22.88;9.43;;;;;;;;;;4985882;28;20054;-76
2022/07/14 03:41:16;;;;;;;21.13;10.07;;;;;;;;;;4984200;28;20045;-77
2022/07/14 03:43:43;;;;;;;28.35;10.57;;;;;;;;;;4999996;28;20142;-77
2022/07/14 03:46:09;;;;;;;30.27;9.65;;;;;;;;;;5000810;28;20561;-76
2022/07/14 03:48:34;;;;;;;27.15;11.05;;;;;;;;;;5000650;28;20044;-76
2022/07/14 03:51:00;;;;;;;22.70;9.65;;;;;;;;;;5018061;28;20494;-78
2022/07/14 03:53:26;;;;;;;24.23;10.65;;;;;;;;;;5004052;28;20044;-75
2022/07/14 03:55:51;;;;;;;22.25;10.23;;;;;;;;;;4977647;28;20109;-76
2022/07/14 03:58:16;;;;;;;26.25;10.35;;;;;;;;;;5000997;28;20079;-76
2022/07/14 04:00:42;;;;;;;21.35;9.63;;;;;;;;;;4985033;28;20032;-76
2022/07/14 04:03:07;;;;;;;28.13;10.13;;;;;;;;;;4999980;28;20037;-76
2022/07/14 04:05:32;;;;;;;27.35;10.43;;;;;;;;;;4983714;28;20034;-75
2022/07/14 04:07:58;;;;;;;20.95;9.50;;;;;;;;;;5000562;28;20124;-76
2022/07/14 04:10:24;;;;;;;25.10;9.57;;;;;;;;;;4983379;28;20787;-76
2022/07/14 04:12:50;;;;;;;24.95;10.80;;;;;;;;;;4984898;28;20069;-75
2022/07/14 04:15:15;;;;;;;18.10;8.77;;;;;;;;;;5000498;28;20041;-76
2022/07/14 04:17:41;;;;;;;31.00;9.35;;;;;;;;;;4982889;28;20058;-76
2022/07/14 04:20:07;;;;;;;20.60;9.18;;;;;;;;;;4983652;28;20049;-76
2022/07/14 04:22:32;;;;;;;20.33;9.35;;;;;;;;;;4985649;28;20042;-76
2022/07/14 04:24:58;;;;;;;17.63;8.45;;;;;;;;;;5000105;28;20501;-76
2022/07/14 04:27:23;;;;;;;20.95;9.05;;;;;;;;;;4984608;28;20045;-76
2022/07/14 04:29:48;;;;;;;22.98;9.77;;;;;;;;;;4978111;28;20120;-76
2022/07/14 04:32:14;;;;;;;20.70;9.07;;;;;;;;;;4999053;28;20109;-76
2022/07/14 04:34:39;;;;;;;23.55;10.13;;;;;;;;;;5001425;28;20042;-76
2022/07/14 04:37:05;;;;;;;20.42;9.32;;;;;;;;;;4993138;28;20091;-76
2022/07/14 04:39:30;;;;;;;26.10;10.25;;;;;;;;;;4998041;28;20036;-76
2022/07/14 04:41:56;;;;;;;29.33;10.80;;;;;;;;;;5017048;28;20038;-76
2022/07/14 04:44:21;;;;;;;26.90;10.85;;;;;;;;;;5001447;28;20065;-76
2022/07/14 04:46:46;;;;;;;20.75;10.45;;;;;;;;;;4976159;28;20148;-76
2022/07/14 04:52:01;;;;;;;18.63;10.38;;;;;;;;;;4998697;28;20041;-76
2022/07/14 04:54:27;;;;;;;24.73;10.63;;;;;;;;;;4982916;28;20505;-76
2022/07/14 04:56:55;;;;;;;22.23;10.35;;;;;;;;;;4987168;28;20030;-76
2022/07/14 04:59:21;;;;;;;35.50;10.73;;;;;;;;;;4997059;28;20041;-76
2022/07/14 05:01:46;;;;;;;21.40;10.60;;;;;;;;;;4983774;28;20026;-77
2022/07/14 05:04:14;;;;;;;22.55;11.30;;;;;;;;;;4983522;28;20054;-77
2022/07/14 05:06:39;;;;;;;33.38;10.90;;;;;;;;;;4981622;28;20042;-77
2022/07/14 05:09:05;;;;;;;24.85;10.50;;;;;;;;;;4999181;28;20036;-77
2022/07/14 05:11:30;;;;;;;24.38;11.13;;;;;;;;;;5014729;28;20077;-77
2022/07/14 05:13:56;;;;;;;26.85;10.82;;;;;;;;;;4997015;28;20025;-77
2022/07/14 05:16:21;;;;;;;35.60;13.02;;;;;;;;;;4967086;28;20441;-73
2022/07/14 05:18:46;;;;;;;34.13;11.90;;;;;;;;;;5015465;28;20036;-72
2022/07/14 05:21:12;;;;;;;27.90;11.48;;;;;;;;;;4988858;28;20072;-73
2022/07/14 05:23:38;;;;;;;27.90;11.35;;;;;;;;;;4980799;28;20410;-73
2022/07/14 05:26:09;;;;;;;36.03;11.57;;;;;;;;;;4997676;28;20041;-72
2022/07/14 05:28:34;;;;;;;40.70;13.27;;;;;;;;;;5006092;28;20100;-72
2022/07/14 05:31:00;;;;;;;33.88;11.00;;;;;;;;;;4996060;28;20073;-72
2022/07/14 05:33:25;;;;;;;24.80;10.25;;;;;;;;;;4999957;28;20487;-72
2022/07/14 05:35:50;;;;;;;25.00;9.30;;;;;;;;;;5012195;28;20022;-72
2022/07/14 05:38:16;;;;;;;26.80;9.25;;;;;;;;;;4998655;28;20109;-72
2022/07/14 05:40:41;;;;;;;27.00;8.45;;;;;;;;;;5001686;28;20057;-72
2022/07/14 05:43:06;;;;;;;27.23;8.63;;;;;;;;;;4980298;28;20034;-72
2022/07/14 05:45:32;;;;;;;27.52;9.20;;;;;;;;;;4999790;28;20541;-72
2022/07/14 05:47:58;;;;;;;26.00;8.85;;;;;;;;;;5010426;28;20121;-72
2022/07/14 05:50:23;;;;;;;30.05;8.77;;;;;;;;;;5010932;28;20034;-72
2022/07/14 05:52:48;;;;;;;21.77;7.30;;;;;;;;;;5016112;28;20422;-77
2022/07/14 05:55:14;;;;;;;19.83;7.55;;;;;;;;;;4981445;28;20103;-77
2022/07/14 05:57:39;;;;;;;26.92;8.52;;;;;;;;;;4994960;28;20023;-75
2022/07/14 06:00:06;;;;;;;20.35;7.78;;;;;;;;;;5011857;28;20108;-75
2022/07/14 06:02:31;;;;;;;21.45;7.70;;;;;;;;;;4977318;28;20041;-75
2022/07/14 06:04:56;;;;;;;21.75;7.82;;;;;;;;;;4986744;28;20124;-76
2022/07/14 06:07:22;;;;;;;22.23;8.00;;;;;;;;;;5005460;28;20066;-75
2022/07/14 06:09:49;;;;;;;31.00;7.32;;;;;;;;;;4976189;28;20069;-76
2022/07/14 06:12:14;;;;;;;25.67;7.63;;;;;;;;;;5018744;28;20036;-76
2022/07/14 06:14:40;;;;;;;19.73;6.25;;;;;;;;;;4993822;28;20441;-75
2022/07/14 06:17:06;;;;;;;21.73;5.72;;;;;;;;;;4982998;28;20034;-76
2022/07/14 06:19:31;;;;;;;24.90;5.82;;;;;;;;;;4996852;28;20088;-75
2022/07/14 06:21:57;;;;;;;16.85;5.15;;;;;;;;;;4999769;28;20100;-75
2022/07/14 06:24:22;;;;;;;14.88;4.47;;;;;;;;;;5002200;28;20022;-75
2022/07/14 06:26:48;;;;;;;15.18;3.33;;;;;;;;;;5011832;28;20525;-75
2022/07/14 06:29:13;;;;;;;15.25;3.13;;;;;;;;;;5002843;28;20125;-75
2022/07/14 06:31:38;;;;;;;16.45;4.32;;;;;;;;;;4996815;28;20084;-75
2022/07/14 06:34:06;;;;;;;13.00;3.10;;;;;;;;;;4983037;28;20145;-75
2022/07/14 06:36:32;;;;;;;18.88;3.53;;;;;;;;;;5002414;28;20042;-75
2022/07/14 06:38:58;;;;;;;15.77;3.47;;;;;;;;;;5018454;28;20053;-75
2022/07/14 06:41:23;;;;;;;14.65;3.22;;;;;;;;;;5010040;28;20035;-75
2022/07/14 06:43:49;;;;;;;14.40;2.83;;;;;;;;;;5010513;28;20065;-75
2022/07/14 06:46:15;;;;;;;15.13;2.65;;;;;;;;;;4960490;28;20112;-75
2022/07/14 06:48:40;;;;;;;12.68;3.50;;;;;;;;;;4984364;28;20069;-75
2022/07/14 06:51:06;;;;;;;13.15;2.70;;;;;;;;;;5002362;28;20066;-76
2022/07/14 06:53:31;;;;;;;13.23;2.50;;;;;;;;;;5017870;28;20065;-75
2022/07/14 06:55:56;;;;;;;12.80;1.83;;;;;;;;;;4993621;28;20490;-76
2022/07/14 06:58:22;;;;;;;11.85;2.08;;;;;;;;;;4979840;28;20030;-75
2022/07/14 07:00:47;;;;;;;14.35;2.90;;;;;;;;;;4990490;28;20109;-76
2022/07/14 07:03:13;;;;;;;12.70;2.50;;;;;;;;;;4996756;28;20458;-76
2022/07/14 07:08:23;;;;;;;13.18;2.63;;;;;;;;;;4997598;28;20034;-76
2022/07/14 07:10:49;;;;;;;8.93;2.38;;;;;;;;;;5021243;28;20609;-76
2022/07/14 07:13:15;;;;;;;15.27;3.13;;;;;;;;;;4996584;28;20034;-76
2022/07/14 07:15:40;;;;;;;11.55;2.20;;;;;;;;;;4996859;28;20441;-76
2022/07/14 07:18:08;;;;;;;12.65;2.80;;;;;;;;;;5014632;28;20499;-76
2022/07/14 07:20:36;;;;;;;11.25;2.35;;;;;;;;;;5013066;28;20045;-76
2022/07/14 07:23:02;;;;;;;11.32;2.35;;;;;;;;;;4997389;28;20513;-76
2022/07/14 07:25:27;;;;;;;11.15;2.40;;;;;;;;;;4981922;28;20040;-76
2022/07/14 07:27:53;;;;;;;14.02;2.40;;;;;;;;;;5020582;28;20440;-76
2022/07/14 07:30:18;;;;;;;9.35;2.28;;;;;;;;;;5012826;28;20034;-76
2022/07/14 07:32:44;;;;;;;11.90;2.17;;;;;;;;;;4986514;28;20379;-76
2022/07/14 07:35:09;;;;;;;9.65;1.70;;;;;;;;;;4996374;28;20069;-76
2022/07/14 07:37:35;;;;;;;10.30;2.13;;;;;;;;;;5014047;28;20504;-77
2022/07/14 07:40:00;;;;;;;9.38;1.92;;;;;;;;;;5004040;28;20125;-76
2022/07/14 07:42:26;;;;;;;8.63;1.95;;;;;;;;;;5020932;28;20371;-76
2022/07/14 07:44:51;;;;;;;8.63;2.15;;;;;;;;;;4997177;28;20042;-76
2022/07/14 07:47:17;;;;;;;11.75;1.92;;;;;;;;;;5007096;28;20048;-76
2022/07/14 07:49:42;;;;;;;7.20;2.13;;;;;;;;;;5016846;28;20088;-76
2022/07/14 07:52:07;;;;;;;9.77;2.13;;;;;;;;;;5020899;28;20681;-76
2022/07/14 07:54:33;;;;;;;8.25;1.88;;;;;;;;;;5005257;28;20106;-77
2022/07/14 07:56:59;;;;;;;13.57;2.42;;;;;;;;;;5011003;28;20113;-76
2022/07/14 07:59:25;;;;;;;11.05;2.67;;;;;;;;;;4981565;28;20052;-78
2022/07/14 08:01:51;;;;;;;7.25;2.10;;;;;;;;;;5003561;28;20030;-76
2022/07/14 08:04:16;;;;;;;7.88;2.00;;;;;;;;;;4988146;28;20034;-76
2022/07/14 08:06:41;;;;;;;7.78;2.08;;;;;;;;;;5020955;28;20125;-76
2022/07/14 08:09:11;;;;;;;9.05;2.10;;;;;;;;;;5020055;28;20386;-76
2022/07/14 08:11:37;;;;;;;10.65;2.45;;;;;;;;;;4988219;28;20030;-76
2022/07/14 08:14:03;;;;;;;9.85;2.28;;;;;;;;;;4979090;28;20113;-77
2022/07/14 08:16:28;;;;;;;9.13;2.30;;;;;;;;;;4995857;28;20598;-76
2022/07/14 08:18:53;;;;;;;8.25;2.20;;;;;;;;;;4987325;28;20121;-76
2022/07/14 08:21:19;;;;;;;7.47;2.15;;;;;;;;;;5012259;28;20124;-77
2022/07/14 08:23:44;;;;;;;9.55;2.33;;;;;;;;;;4985955;28;20196;-77
2022/07/14 08:26:10;;;;;;;12.57;2.20;;;;;;;;;;5003963;28;20057;-77
2022/07/14 08:28:36;;;;;;;6.38;1.77;;;;;;;;;;5016520;28;20062;-76
2022/07/14 08:31:01;;;;;;;7.00;2.42;;;;;;;;;;4999190;28;20133;-76
2022/07/14 08:33:26;;;;;;;10.43;2.10;;;;;;;;;;5019561;28;20047;-76
2022/07/14 08:35:52;;;;;;;12.13;2.00;;;;;;;;;;5006254;28;20080;-77
2022/07/14 08:38:17;;;;;;;7.22;1.30;;;;;;;;;;5018822;28;20056;-77
2022/07/14 08:40:42;;;;;;;5.47;1.13;;;;;;;;;;5020844;28;20038;-76
2022/07/14 08:43:08;;;;;;;4.95;1.27;;;;;;;;;;5012022;28;20049;-76
2022/07/14 08:45:35;;;;;;;6.68;1.42;;;;;;;;;;5019035;28;20474;-77
2022/07/14 08:48:01;;;;;;;8.68;1.83;;;;;;;;;;5003647;28;20120;-76
2022/07/14 08:50:26;;;;;;;6.60;1.30;;;;;;;;;;5011937;28;20050;-76
2022/07/14 08:52:52;;;;;;;7.15;1.30;;;;;;;;;;4986620;28;20034;-76
2022/07/14 08:55:18;;;;;;;6.97;1.52;;;;;;;;;;4994661;28;20568;-76
2022/07/14 08:57:43;;;;;;;7.10;1.75;;;;;;;;;;5003162;28;20049;-76
2022/07/14 09:00:14;;;;;;;6.70;1.52;;;;;;;;;;5019631;28;20034;-76
2022/07/14 09:02:40;;;;;;;7.97;1.40;;;;;;;;;;4987405;28;20057;-76
2022/07/14 09:05:06;;;;;;;6.45;1.33;;;;;;;;;;5002011;28;20117;-76
2022/07/14 09:07:33;;;;;;;6.63;1.33;;;;;;;;;;5012091;28;20461;-76
2022/07/14 09:10:04;;;;;;;5.88;1.13;;;;;;;;;;4994669;28;20129;-76
2022/07/14 09:12:29;;;;;;;9.00;1.38;;;;;;;;;;5018483;28;20133;-76
2022/07/14 09:17:52;;;;;;;5.18;1.20;;;;;;;;;;5017663;28;20045;-76
2022/07/14 09:20:17;;;;;;;6.65;1.48;;;;;;;;;;4993941;28;20022;-76
2022/07/14 09:22:43;;;;;;;6.70;1.30;;;;;;;;;;5020194;28;20363;-76
2022/07/14 09:25:15;;;;;;;5.00;1.35;;;;;;;;;;5018264;28;20060;-76
2022/07/14 09:27:40;;;;;;;6.57;1.63;;;;;;;;;;5018676;28;20030;-76
2022/07/14 09:30:06;;;;;;;8.57;1.45;;;;;;;;;;5011208;28;20042;-76
2022/07/14 09:32:47;;;;;;;5.28;1.10;;;;;;;;;;5002773;28;20549;-76
2022/07/14 09:35:14;;;;;;;5.40;1.23;;;;;;;;;;4997943;28;20030;-76
2022/07/14 09:37:39;;;;;;;6.25;1.30;;;;;;;;;;4983694;28;20088;-76
2022/07/14 09:40:05;;;;;;;6.15;1.55;;;;;;;;;;5002627;28;20433;-76
2022/07/14 09:42:50;;;;;;;7.20;1.20;;;;;;;;;;4994476;28;20040;-76
2022/07/14 09:45:17;;;;;;;6.00;1.42;;;;;;;;;;4987239;28;20042;-76
2022/07/14 09:47:53;;;;;;;5.15;1.25;;;;;;;;;;4958995;28;20037;-76
2022/07/14 09:50:38;;;;;;;7.43;1.10;;;;;;;;;;4998193;28;20042;-76
2022/07/14 09:53:14;;;;;;;8.20;1.42;;;;;;;;;;5001116;28;20030;-76
2022/07/14 09:55:52;;;;;;;4.90;1.30;;;;;;;;;;5001810;28;20046;-76
2022/07/14 09:58:18;;;;;;;8.75;1.65;;;;;;;;;;4987192;28;20117;-76
2022/07/14 10:00:44;;;;;;;4.88;1.38;;;;;;;;;;5002593;28;20025;-76
2022/07/14 10:03:09;;;;;;;3.90;1.30;;;;;;;;;;5001266;28;20050;-77
2022/07/14 10:05:35;;;;;;;5.40;1.13;;;;;;;;;;5011437;28;20053;-76
2022/07/14 10:08:04;;;;;;;3.13;1.02;;;;;;;;;;5018342;28;20498;-76
2022/07/14 10:10:32;;;;;;;5.38;1.20;;;;;;;;;;5001500;28;20053;-77
2022/07/14 10:12:58;;;;;;;5.43;1.42;;;;;;;;;;4978217;28;20117;-77
2022/07/14 10:15:23;;;;;;;6.03;1.10;;;;;;;;;;5001740;28;20125;-76
2022/07/14 10:17:48;;;;;;;5.03;1.48;;;;;;;;;;5002326;28;20108;-76
2022/07/14 10:20:16;;;;;;;6.03;1.38;;;;;;;;;;5010256;28;20556;-77
2022/07/14 10:22:42;;;;;;;7.50;1.65;;;;;;;;;;4986960;28;20034;-76
2022/07/14 10:25:09;;;;;;;7.63;1.50;;;;;;;;;;4995169;28;20042;-76
2022/07/14 10:27:34;;;;;;;4.43;1.00;;;;;;;;;;4986238;28;20041;-77
2022/07/14 10:29:59;;;;;;;5.82;1.40;;;;;;;;;;4983879;28;20030;-77
2022/07/14 10:32:59;;;;;;;4.65;1.30;;;;;;;;;;5002179;28;20461;-77
2022/07/14 10:35:32;;;;;;;7.32;1.15;;;;;;;;;;5001346;28;20564;-76
2022/07/14 10:38:04;;;;;;;3.53;1.08;;;;;;;;;;5017338;28;20041;-76
2022/07/14 10:40:45;;;;;;;6.40;1.40;;;;;;;;;;5002523;28;20046;-77
2022/07/14 10:43:20;;;;;;;4.50;1.13;;;;;;;;;;5012745;28;20033;-76
2022/07/14 10:45:49;;;;;;;4.50;1.20;;;;;;;;;;4998531;28;20030;-77
2022/07/14 10:48:34;;;;;;;5.68;1.35;;;;;;;;;;4995935;28;20061;-76
2022/07/14 10:51:26;;;;;;;9.95;1.77;;;;;;;;;;4996380;28;20038;-76
2022/07/14 10:54:05;;;;;;;7.05;1.80;;;;;;;;;;4998553;28;20056;-77
2022/07/14 10:56:30;;;;;;;7.47;1.80;;;;;;;;;;4932872;28;20121;-77
2022/07/14 10:59:26;;;;;;;5.03;1.92;;;;;;;;;;4996039;28;20037;-77
2022/07/14 11:02:10;;;;;;;4.60;1.50;;;;;;;;;;4998301;28;20064;-76
2022/07/14 11:05:00;;;;;;;7.70;1.70;;;;;;;;;;4980578;28;20041;-76
2022/07/14 11:07:46;;;;;;;9.52;1.63;;;;;;;;;;4987117;28;20038;-76
2022/07/14 11:10:14;;;;;;;14.25;2.65;;;;;;;;;;5005510;28;20355;-76
2022/07/14 11:13:00;;;;;;;6.15;1.13;;;;;;;;;;5006256;28;20030;-77
2022/07/14 11:15:57;;;;;;;7.00;1.30;;;;;;;;;;4987691;28;20074;-77
2022/07/14 11:18:24;;;;;;;4.68;1.17;;;;;;;;;;5000663;28;20041;-76
2022/07/14 11:20:58;;;;;;;5.70;1.13;;;;;;;;;;4997110;28;20037;-76
2022/07/14 11:23:32;;;;;;;7.43;1.05;;;;;;;;;;5021399;28;20060;-76
2022/07/14 11:25:57;;;;;;;9.38;1.52;;;;;;;;;;5020440;28;20100;-77
2022/07/14 11:28:43;;;;;;;3.55;0.70;;;;;;;;;;5004221;28;20377;-77
2022/07/14 11:31:12;;;;;;;5.80;1.50;;;;;;;;;;4997247;28;20033;-76
2022/07/14 11:36:17;;;;;;;6.63;1.20;;;;;;;;;;5004133;28;20492;-77
2022/07/14 11:36:26;;;;;;;6.88;1.60;;;;;;;;;;4991456;28;20049;-77
2022/07/14 11:39:14;;;;;;;4.82;1.20;;;;;;;;;;5004868;28;20217;-77
2022/07/14 11:41:43;;;;;;;4.45;0.93;;;;;;;;;;5014398;28;20046;-76
2022/07/14 11:44:38;;;;;;;5.95;1.05;;;;;;;;;;5017071;28;20034;-76
2022/07/14 11:47:08;;;;;;;5.75;1.00;;;;;;;;;;4988132;28;20465;-76
2022/07/14 11:49:34;;;;;;;8.75;0.85;;;;;;;;;;5015890;28;20042;-75
2022/07/14 11:52:00;;;;;;;5.25;1.08;;;;;;;;;;5018299;28;20049;-76
2022/07/14 11:54:26;;;;;;;4.10;0.80;;;;;;;;;;5019868;28;20029;-76
2022/07/14 11:57:06;;;;;;;3.92;1.05;;;;;;;;;;5005396;28;20034;-76
2022/07/14 11:59:32;;;;;;;4.82;1.52;;;;;;;;;;4989115;28;20096;-77
2022/07/14 12:02:08;;;;;;;3.38;0.93;;;;;;;;;;5008334;28;20034;-76
2022/07/14 12:04:33;;;;;;;8.68;1.10;;;;;;;;;;5005991;28;20057;-76
2022/07/14 12:06:58;;;;;;;7.35;1.38;;;;;;;;;;4984941;28;20050;-76
2022/07/14 12:09:29;;;;;;;4.40;0.82;;;;;;;;;;4970674;28;20038;-75
2022/07/14 12:11:55;;;;;;;4.82;1.20;;;;;;;;;;5019945;28;20033;-76
2022/07/14 12:14:20;;;;;;;4.20;1.00;;;;;;;;;;5021968;28;20560;-76
2022/07/14 12:16:46;;;;;;;5.30;1.30;;;;;;;;;;4987918;28;20061;-76
2022/07/14 12:19:12;;;;;;;5.30;1.23;;;;;;;;;;4995454;28;20038;-76
2022/07/14 12:21:37;;;;;;;3.28;0.98;;;;;;;;;;4993137;28;20061;-76
2022/07/14 12:24:03;;;;;;;2.70;0.60;;;;;;;;;;5012741;28;20070;-76
2022/07/14 12:26:29;;;;;;;4.55;1.17;;;;;;;;;;4996231;28;20076;-76
2022/07/14 12:28:55;;;;;;;2.58;1.00;;;;;;;;;;5020813;28;20447;-76
2022/07/14 12:31:22;;;;;;;2.97;1.10;;;;;;;;;;4987570;28;20120;-76
2022/07/14 12:33:47;;;;;;;4.88;1.02;;;;;;;;;;4996910;28;20054;-76
2022/07/14 12:36:14;;;;;;;4.00;0.85;;;;;;;;;;5002334;28;20057;-76
2022/07/14 12:38:39;;;;;;;5.80;1.30;;;;;;;;;;4996307;28;20026;-76
2022/07/14 12:41:05;;;;;;;7.90;1.23;;;;;;;;;;5003698;28;20390;-76
2022/07/14 12:43:37;;;;;;;3.35;0.82;;;;;;;;;;4987636;28;20116;-76
2022/07/14 12:46:16;;;;;;;5.22;1.58;;;;;;;;;;4987757;28;20770;-77
2022/07/14 12:48:48;;;;;;;5.38;1.50;;;;;;;;;;5003789;28;20485;-77
2022/07/14 12:51:22;;;;;;;3.42;0.88;;;;;;;;;;5004559;28;20188;-76
2022/07/14 12:54:00;;;;;;;7.40;1.10;;;;;;;;;;5005660;28;20148;-77
2022/07/14 12:56:36;;;;;;;5.05;0.98;;;;;;;;;;5013743;28;20397;-77
2022/07/14 12:59:03;;;;;;;6.45;1.20;;;;;;;;;;5001724;28;20442;-77
2022/07/14 13:01:29;;;;;;;4.75;1.23;;;;;;;;;;5002877;28;20505;-77
2022/07/14 13:03:59;;;;;;;2.70;0.70;;;;;;;;;;5017477;28;20030;-76
2022/07/14 13:06:26;;;;;;;4.78;0.90;;;;;;;;;;5010945;28;20034;-77
2022/07/14 13:08:51;;;;;;;6.47;1.23;;;;;;;;;;5020316;28;21113;-77
2022/07/14 13:11:17;;;;;;;3.97;1.00;;;;;;;;;;4985615;28;20029;-76
2022/07/14 13:13:44;;;;;;;6.80;1.20;;;;;;;;;;4979274;28;20144;-76
2022/07/14 13:16:21;;;;;;;6.10;0.90;;;;;;;;;;5002571;28;20393;-77
2022/07/14 13:19:09;;;;;;;2.50;0.95;;;;;;;;;;5001396;28;20069;-77
2022/07/14 13:21:55;;;;;;;3.42;1.00;;;;;;;;;;5003373;28;20041;-76
2022/07/14 13:24:27;;;;;;;8.18;1.25;;;;;;;;;;5003363;28;20030;-76
2022/07/14 13:27:02;;;;;;;3.17;1.20;;;;;;;;;;5010506;28;20026;-77
2022/07/14 13:29:28;;;;;;;4.88;1.05;;;;;;;;;;5018414;28;20045;-77
2022/07/14 13:31:53;;;;;;;4.68;0.90;;;;;;;;;;4994668;28;20038;-76
2022/07/14 13:34:18;;;;;;;4.90;0.95;;;;;;;;;;4993833;28;20029;-76
2022/07/14 13:36:44;;;;;;;3.83;0.90;;;;;;;;;;4986920;28;20030;-76
2022/07/14 13:39:10;;;;;;;5.43;0.95;;;;;;;;;;5018962;28;20034;-76
2022/07/14 13:41:37;;;;;;;10.88;0.80;;;;;;;;;;5018617;28;20125;-76
2022/07/14 13:44:02;;;;;;;4.55;0.90;;;;;;;;;;4981869;28;20494;-76
2022/07/14 13:46:28;;;;;;;4.57;0.70;;;;;;;;;;4985327;28;20038;-75
2022/07/14 13:48:53;;;;;;;2.33;0.70;;;;;;;;;;4999602;28;20046;-75
2022/07/14 13:54:03;;;;;;;3.90;0.93;;;;;;;;;;5015892;28;20069;-76
2022/07/14 13:56:28;;;;;;;6.00;0.90;;;;;;;;;;5013203;28;20022;-77
2022/07/14 13:58:54;;;;;;;3.72;0.82;;;;;;;;;;5008996;28;20029;-76
2022/07/14 14:01:19;;;;;;;9.13;1.20;;;;;;;;;;4979920;28;20105;-76
2022/07/14 14:03:46;;;;;;;5.20;0.80;;;;;;;;;;5001257;28;20504;-77
2022/07/14 14:06:13;;;;;;;2.40;0.63;;;;;;;;;;4996766;28;20030;-75
2022/07/14 14:08:38;;;;;;;5.82;0.98;;;;;;;;;;5017601;28;20329;-76
2022/07/14 14:11:03;;;;;;;4.75;0.55;;;;;;;;;;4982748;28;20453;-75
2022/07/14 14:13:29;;;;;;;6.50;0.75;;;;;;;;;;4964886;28;20038;-77
2022/07/14 14:15:55;;;;;;;2.80;0.65;;;;;;;;;;5017649;28;20042;-77
2022/07/14 14:18:21;;;;;;;5.40;0.98;;;;;;;;;;4985348;28;20034;-76
2022/07/14 14:20:46;;;;;;;3.03;0.75;;;;;;;;;;5019700;28;20545;-76
2022/07/14 14:23:12;;;;;;;4.38;1.08;;;;;;;;;;5017887;28;20026;-76
2022/07/14 14:25:37;;;;;;;5.93;0.80;;;;;;;;;;5005131;28;20141;-76
2022/07/14 14:28:06;;;;;;;4.45;0.73;;;;;;;;;;5010214;28;20458;-76
2022/07/14 14:30:32;;;;;;;9.60;1.15;;;;;;;;;;5018068;28;20045;-76
2022/07/14 14:32:57;;;;;;;4.00;0.90;;;;;;;;;;5017800;28;20548;-77
2022/07/14 14:35:23;;;;;;;7.03;1.23;;;;;;;;;;4978752;28;20034;-76
2022/07/14 14:37:48;;;;;;;3.13;0.90;;;;;;;;;;4992480;28;20448;-76
2022/07/14 14:40:13;;;;;;;6.20;1.35;;;;;;;;;;5002486;28;20137;-76
2022/07/14 14:42:39;;;;;;;2.85;0.80;;;;;;;;;;5001925;28;20018;-76
2022/07/14 14:45:07;;;;;;;6.85;1.00;;;;;;;;;;5001519;28;20049;-75
2022/07/14 14:47:33;;;;;;;2.53;0.73;;;;;;;;;;5010466;28;20034;-76
2022/07/14 14:49:58;;;;;;;2.65;0.80;;;;;;;;;;5017123;28;20042;-76
2022/07/14 14:52:25;;;;;;;3.33;0.85;;;;;;;;;;4994674;28;20057;-76
2022/07/14 14:54:51;;;;;;;4.25;0.73;;;;;;;;;;5010518;28;20037;-77